Portada
METAR-TAF:

METAR-TAF

Aeropuertos :

Municipal_Airport

Cherokee, Iowa, Estados Unidos

latitud: 42-43-54N, longitud: 095-33-21W, altitud: 374 m

Observación

El informe se hizo hace 29 minutos, a las 06:15 UTC
Viento calma
Temperatura 13°C
Humedad 94%
Presión 1025 hPa
Visibilidad: 16.1 km
Nubes dispersas a una altura de 8000 ft
Nubes dispersas a una altura de 10000 ft

METAR: KCKP 310615Z AUTO 00000KT 10SM SCT080 SCT100 13/12 A3026 RMK AO2 T01280121

Hora: 01:44 (06:44 UTC)


TAF: falta

Observaciones y pronósticos meteorológicos de más de 4000 aeropuertos (mensajes METAR y TAF).

Los puntos amarillos y rojos representan las estaciones disponibles.

Ponga el ratón en el punto deseado para ver el nombre de la estación.

Haga clic para ver las observaciones y los pronósticos meteorológicos.

Para cambiar el mapa : haga clic en los botones verdes con una cruz de color negro para hacer un zoom, en el botón verde con un guión para alejar o en las flechas verdes para mapas adyacentes.


METAR-TAF: